Time;durP1;ratioP1;P1;durP2;ratioP2;P2;SDS_P1;SDS_P2;PMS_P1;PMS_P2;Temp;Humidity;BMP_temperature;BMP_pressure;BME280_temperature;BME280_humidity;BME280_pressure;Samples;Min_cycle;Max_cycle;Signal;HPM_P1;HPM_P2
2021/05/11 00:01:45;;;;;;;28.08;4.93;;;;;;;13.44;77.22;99488.91;5066819;28;20035;-89
2021/05/11 00:04:11;;;;;;;25.67;4.88;;;;;;;13.46;77.56;99488.75;5071188;28;20029;-91
2021/05/11 00:06:37;;;;;;;28.17;4.65;;;;;;;13.52;77.20;99482.09;5073012;28;20028;-90
2021/05/11 00:09:04;;;;;;;31.50;5.57;;;;;;;13.47;77.20;99480.72;5072107;28;20078;-90
2021/05/11 00:11:30;;;;;;;20.30;4.15;;;;;;;13.49;77.53;99476.13;5060181;28;20036;-90
2021/05/11 00:13:55;;;;;;;37.83;5.90;;;;;;;13.48;77.55;99471.81;5070794;28;20048;-90
2021/05/11 00:16:20;;;;;;;32.63;6.45;;;;;;;13.57;77.16;99477.22;5070627;28;20039;-90
2021/05/11 00:18:46;;;;;;;19.33;3.75;;;;;;;13.66;76.94;99481.59;5061055;28;20390;-90
2021/05/11 00:21:11;;;;;;;23.27;4.43;;;;;;;13.61;77.24;99475.94;5065963;28;20477;-90
2021/05/11 00:23:37;;;;;;;28.30;5.00;;;;;;;13.61;76.91;99473.31;5070394;28;20025;-90
2021/05/11 00:26:02;;;;;;;26.25;4.38;;;;;;;13.60;76.33;99464.53;5067379;28;20017;-90
2021/05/11 00:28:28;;;;;;;28.30;5.55;;;;;;;13.58;75.99;99470.94;5069689;28;20064;-90
2021/05/11 00:30:53;;;;;;;23.75;3.53;;;;;;;13.51;76.44;99456.66;5070488;28;20036;-90
2021/05/11 00:33:18;;;;;;;24.77;4.82;;;;;;;13.40;76.95;99470.88;5071348;28;20113;-90
2021/05/11 00:35:44;;;;;;;20.23;4.65;;;;;;;13.29;77.14;99466.63;5070750;28;20031;-90
2021/05/11 00:38:09;;;;;;;22.75;5.35;;;;;;;13.34;77.37;99463.56;5067113;28;20511;-91
2021/05/11 00:40:35;;;;;;;23.70;4.38;;;;;;;13.36;77.51;99466.88;5068905;28;20032;-90
2021/05/11 00:43:00;;;;;;;30.95;4.60;;;;;;;13.29;77.15;99461.34;5070725;28;20448;-91
2021/05/11 00:45:26;;;;;;;17.83;2.97;;;;;;;13.33;77.66;99462.75;5071584;28;20044;-90
2021/05/11 00:47:51;;;;;;;22.27;3.67;;;;;;;13.35;77.41;99466.06;5070489;28;20024;-90
2021/05/11 00:50:17;;;;;;;26.40;4.40;;;;;;;13.31;78.06;99477.88;5053868;28;21642;-90
2021/05/11 00:52:42;;;;;;;23.95;4.53;;;;;;;13.37;77.35;99471.16;5070682;28;20056;-90
2021/05/11 00:55:09;;;;;;;22.13;3.65;;;;;;;13.41;77.01;99465.47;5052360;28;20075;-91
2021/05/11 00:57:35;;;;;;;20.60;5.88;;;;;;;13.35;77.36;99460.78;5065304;28;20068;-90
2021/05/11 01:00:03;;;;;;;14.48;4.55;;;;;;;13.40;77.03;99469.06;5070744;28;20051;-90
2021/05/11 01:02:28;;;;;;;30.17;5.35;;;;;;;13.40;77.24;99471.72;5069824;28;20028;-90
2021/05/11 01:04:53;;;;;;;22.02;4.63;;;;;;;13.46;76.42;99463.22;5070692;28;20497;-90
2021/05/11 01:07:19;;;;;;;26.40;5.38;;;;;;;13.35;76.97;99459.94;5070953;28;20090;-89
2021/05/11 01:09:45;;;;;;;25.23;4.57;;;;;;;13.21;77.01;99463.84;5053389;28;20036;-91
2021/05/11 01:12:10;;;;;;;19.38;4.85;;;;;;;13.23;77.41;99464.53;5057810;28;20082;-90
2021/05/11 01:14:36;;;;;;;24.92;4.93;;;;;;;13.21;76.27;99453.28;5051367;28;20086;-90
2021/05/11 01:17:02;;;;;;;20.92;4.22;;;;;;;13.09;77.11;99461.41;5067198;28;20040;-90
2021/05/11 01:32:18;;;;;;;25.83;4.88;;;;;;;12.76;78.93;99464.53;5063179;28;20498;-89
2021/05/11 01:51:07;;;;;;;22.77;4.68;;;;;;;12.59;79.49;99466.91;5068146;28;20029;-89
2021/05/11 01:53:58;;;;;;;22.85;3.85;;;;;;;12.53;79.71;99464.81;5070916;28;20024;-90
2021/05/11 02:23:14;;;;;;;22.88;4.43;;;;;;;11.87;80.06;99479.44;5060576;28;20035;-90
2021/05/11 02:25:39;;;;;;;17.95;3.25;;;;;;;11.88;80.49;99477.63;5070492;28;20029;-90
2021/05/11 02:28:05;;;;;;;17.85;3.65;;;;;;;11.88;80.52;99478.47;5068868;28;20025;-90
2021/05/11 02:30:30;;;;;;;23.92;4.30;;;;;;;11.96;81.11;99482.25;5057108;28;20032;-90
2021/05/11 02:32:56;;;;;;;29.02;5.57;;;;;;;12.04;80.94;99482.41;5074447;28;20028;-90
2021/05/11 02:35:21;;;;;;;22.95;4.22;;;;;;;12.08;81.22;99484.63;5064381;28;20057;-89
2021/05/11 02:37:47;;;;;;;17.35;3.70;;;;;;;12.09;81.14;99482.84;5069642;28;20021;-90
2021/05/11 02:40:15;;;;;;;21.05;4.82;;;;;;;12.14;81.25;99485.88;5071671;28;20394;-90
2021/05/11 02:42:42;;;;;;;18.40;3.83;;;;;;;12.22;81.18;99485.19;5073535;28;20021;-90
2021/05/11 02:45:11;;;;;;;30.88;4.55;;;;;;;12.15;80.90;99478.81;5073638;28;20115;-91
2021/05/11 02:47:47;;;;;;;21.52;4.72;;;;;;;12.12;80.75;99472.03;5072659;28;20107;-90
2021/05/11 02:50:22;;;;;;;15.82;4.80;;;;;;;12.09;81.24;99470.50;5074499;28;20099;-90
2021/05/11 02:52:48;;;;;;;27.40;4.38;;;;;;;12.19;80.45;99478.41;5071356;28;20034;-90
2021/05/11 02:55:15;;;;;;;23.58;4.55;;;;;;;12.14;80.53;99470.06;5072452;28;20035;-91
2021/05/11 02:57:41;;;;;;;22.80;4.00;;;;;;;12.05;80.47;99470.91;5072206;28;20017;-90
2021/05/11 03:00:08;;;;;;;24.40;3.90;;;;;;;11.98;80.24;99470.63;5072556;28;20024;-90
2021/05/11 03:02:34;;;;;;;17.58;4.18;;;;;;;11.88;79.21;99477.63;5071926;28;20038;-91
2021/05/11 03:04:59;;;;;;;13.27;3.72;;;;;;;11.68;79.70;99463.59;5074653;28;20416;-89
2021/05/11 03:07:25;;;;;;;17.73;3.72;;;;;;;11.64;79.72;99462.22;5069996;28;20040;-90
2021/05/11 03:09:51;;;;;;;17.33;3.65;;;;;;;11.48;79.82;99463.53;5074318;28;20516;-90
2021/05/11 03:12:16;;;;;;;17.00;4.05;;;;;;;11.42;79.40;99460.63;5059439;28;20029;-90
2021/05/11 03:14:42;;;;;;;21.33;4.38;;;;;;;11.42;79.91;99463.25;5073835;28;20029;-91
2021/05/11 03:17:07;;;;;;;14.98;3.50;;;;;;;11.38;79.89;99461.84;5060848;28;20035;-90
2021/05/11 03:19:33;;;;;;;14.48;3.72;;;;;;;11.40;79.94;99462.56;5060479;28;20029;-90
2021/05/11 03:21:58;;;;;;;14.43;3.95;;;;;;;11.35;79.96;99464.75;5071532;28;20025;-90
2021/05/11 03:24:24;;;;;;;11.05;3.15;;;;;;;11.28;80.20;99461.81;5073979;28;20484;-90
2021/05/11 03:26:50;;;;;;;22.92;5.75;;;;;;;11.27;79.81;99465.41;5060775;28;20032;-90
2021/05/11 03:29:16;;;;;;;16.73;4.50;;;;;;;11.20;79.86;99464.28;5059386;28;20438;-90
2021/05/11 03:31:41;;;;;;;20.05;4.00;;;;;;;11.19;79.92;99462.59;5070984;28;20072;-90
2021/05/11 03:34:07;;;;;;;16.98;4.50;;;;;;;11.22;79.72;99467.59;5073845;28;20470;-91
2021/05/11 03:36:32;;;;;;;13.38;3.95;;;;;;;11.19;79.45;99467.84;5062066;28;20636;-91
2021/05/11 03:39:01;;;;;;;13.57;3.80;;;;;;;11.10;79.90;99466.84;5069571;28;20067;-91
2021/05/11 03:41:30;;;;;;;20.10;3.95;;;;;;;11.13;80.14;99468.38;5062324;28;20089;-91
2021/05/11 03:44:09;;;;;;;16.13;4.35;;;;;;;11.09;79.73;99473.88;5055214;28;20025;-90
2021/05/11 03:46:37;;;;;;;11.82;4.00;;;;;;;11.02;79.53;99467.50;5063539;28;20104;-90
2021/05/11 03:49:03;;;;;;;21.38;4.38;;;;;;;10.92;80.33;99466.63;5072176;28;20474;-90
2021/05/11 03:51:29;;;;;;;18.00;4.45;;;;;;;10.91;80.98;99470.19;5064127;28;20130;-90
2021/05/11 03:53:55;;;;;;;12.65;4.20;;;;;;;10.97;80.78;99468.84;5073422;28;20085;-90
2021/05/11 03:56:20;;;;;;;14.75;3.95;;;;;;;10.97;80.34;99472.31;5072082;28;20032;-90
2021/05/11 03:58:45;;;;;;;24.27;4.05;;;;;;;10.91;80.69;99467.56;5073247;28;20024;-89
2021/05/11 04:01:11;;;;;;;15.93;3.45;;;;;;;10.94;80.74;99475.19;5067848;28;20497;-89
2021/05/11 04:03:36;;;;;;;15.88;4.35;;;;;;;10.97;81.03;99467.03;5073533;28;20373;-90
2021/05/11 04:06:03;;;;;;;15.30;3.92;;;;;;;10.99;81.01;99465.13;5068026;28;20043;-89
2021/05/11 04:08:39;;;;;;;15.68;4.57;;;;;;;10.96;80.61;99467.16;5073280;28;20050;-90
2021/05/11 04:16:25;;;;;;;19.05;4.53;;;;;;;10.96;80.62;99462.78;5072093;28;20363;-90
2021/05/11 04:18:51;;;;;;;20.60;4.88;;;;;;;10.87;82.33;99463.53;5070940;28;20041;-90
2021/05/11 04:21:17;;;;;;;18.27;3.95;;;;;;;10.98;82.43;99460.84;5067696;28;20024;-90
2021/05/11 04:23:43;;;;;;;22.73;4.63;;;;;;;11.06;82.03;99466.28;5070872;28;20393;-90
2021/05/11 04:26:13;;;;;;;20.77;5.35;;;;;;;11.08;82.62;99461.72;5063085;28;20478;-90
2021/05/11 04:28:39;;;;;;;19.10;4.90;;;;;;;11.16;82.51;99468.97;5070805;28;20033;-90
2021/05/11 04:31:05;;;;;;;27.13;6.45;;;;;;;11.04;83.06;99473.47;5070011;28;20027;-90
2021/05/11 04:33:31;;;;;;;27.15;5.07;;;;;;;11.10;82.98;99459.78;5071656;28;20214;-90
2021/05/11 04:35:56;;;;;;;17.92;4.93;;;;;;;11.17;82.54;99472.41;5070614;28;20028;-90
2021/05/11 04:38:22;;;;;;;13.77;4.68;;;;;;;11.19;82.27;99473.09;5072762;28;20017;-90
2021/05/11 04:40:48;;;;;;;17.95;4.30;;;;;;;11.20;82.43;99474.78;5065039;28;20364;-90
2021/05/11 04:43:14;;;;;;;16.35;4.28;;;;;;;11.43;81.69;99467.53;5067315;28;20033;-90
2021/05/11 04:45:39;;;;;;;11.15;3.92;;;;;;;11.44;81.96;99471.84;5066734;28;20074;-89
2021/05/11 04:48:05;;;;;;;19.42;5.30;;;;;;;11.52;81.90;99475.47;5068547;28;20037;-90
2021/05/11 04:50:31;;;;;;;19.77;5.93;;;;;;;11.61;82.26;99475.63;5069269;28;20071;-90
2021/05/11 04:52:57;;;;;;;18.13;5.03;;;;;;;11.74;82.32;99472.75;5066685;28;20108;-89
2021/05/11 04:55:23;;;;;;;19.08;5.05;;;;;;;11.84;82.35;99473.59;5066169;28;20021;-89
2021/05/11 04:57:48;;;;;;;23.88;4.88;;;;;;;11.91;82.56;99464.25;5052360;28;20385;-90
2021/05/11 05:00:15;;;;;;;16.15;4.82;;;;;;;12.00;82.17;99467.84;5056035;28;20029;-90
2021/05/11 05:02:43;;;;;;;12.10;4.80;;;;;;;11.99;82.81;99476.72;5069945;28;20020;-90
2021/05/11 05:05:09;;;;;;;18.98;4.60;;;;;;;12.11;82.95;99475.63;5071573;28;20028;-89
2021/05/11 05:07:35;;;;;;;18.75;5.13;;;;;;;12.27;82.49;99486.44;5070880;28;20089;-90
2021/05/11 05:10:01;;;;;;;19.42;4.80;;;;;;;12.28;82.69;99485.50;5071220;28;20313;-89
2021/05/11 05:12:26;;;;;;;16.00;4.93;;;;;;;12.53;82.34;99483.25;5070081;28;20214;-90
2021/05/11 05:14:52;;;;;;;17.17;4.55;;;;;;;12.65;81.50;99487.41;5059852;28;20434;-89
2021/05/11 05:17:17;;;;;;;24.40;4.55;;;;;;;12.72;81.04;99484.19;5065529;28;20052;-90
2021/05/11 05:19:42;;;;;;;18.10;4.78;;;;;;;12.81;81.30;99488.63;5071839;28;20052;-90
2021/05/11 05:22:08;;;;;;;15.60;3.63;;;;;;;12.91;81.51;99484.16;5067547;28;20024;-90
2021/05/11 05:24:42;;;;;;;15.65;3.50;;;;;;;12.94;80.98;99494.44;5068718;28;20085;-90
2021/05/11 05:27:37;;;;;;;14.13;3.80;;;;;;;12.94;80.66;99483.91;5052931;28;20459;-90
2021/05/11 05:30:06;;;;;;;16.05;3.90;;;;;;;13.12;81.08;99491.91;5060138;28;20119;-89
2021/05/11 05:32:31;;;;;;;20.40;3.53;;;;;;;13.12;80.20;99491.91;5070077;28;20051;-90
2021/05/11 05:34:57;;;;;;;20.80;4.30;;;;;;;13.19;80.02;99502.69;5071638;28;20359;-90
2021/05/11 05:37:22;;;;;;;23.67;4.80;;;;;;;13.18;79.31;99499.22;5070410;28;20032;-90
2021/05/11 05:39:51;;;;;;;14.95;3.10;;;;;;;13.17;79.94;99507.28;5070575;28;20031;-90
2021/05/11 05:42:16;;;;;;;20.85;3.85;;;;;;;13.15;79.67;99517.97;5052216;28;20028;-90
2021/05/11 05:44:42;;;;;;;17.30;3.90;;;;;;;13.14;80.40;99518.94;5062395;28;20029;-90
2021/05/11 05:47:07;;;;;;;17.52;3.28;;;;;;;13.18;79.86;99517.69;5070144;28;20035;-90
2021/05/11 05:49:41;;;;;;;19.73;4.07;;;;;;;13.17;79.75;99520.47;5070791;28;20060;-91
2021/05/11 05:52:09;;;;;;;19.17;4.40;;;;;;;13.16;79.98;99521.44;5070587;28;20032;-90
2021/05/11 05:54:34;;;;;;;16.00;3.78;;;;;;;13.19;79.71;99532.53;5055410;28;20031;-90
2021/05/11 05:57:00;;;;;;;15.50;3.50;;;;;;;13.24;79.39;99532.94;5070441;28;20385;-91
2021/05/11 05:59:25;;;;;;;12.93;3.65;;;;;;;13.27;79.89;99537.09;5052355;28;20486;-90
2021/05/11 06:01:53;;;;;;;18.42;4.57;;;;;;;13.51;79.23;99548.97;5075059;28;20504;-90
2021/05/11 06:04:21;;;;;;;18.58;4.10;;;;;;;13.62;78.41;99541.72;5057055;28;20028;-90
2021/05/11 06:06:48;;;;;;;17.05;3.78;;;;;;;13.76;78.41;99543.03;5067888;28;20187;-90
2021/05/11 06:09:20;;;;;;;12.38;3.85;;;;;;;13.96;77.71;99549.09;5072865;28;20036;-90
2021/05/11 06:12:07;;;;;;;16.00;3.05;;;;;;;14.00;76.60;99544.31;5074170;28;20028;-90
2021/05/11 06:17:17;;;;;;;15.43;3.75;;;;;;;14.14;76.18;99545.63;5057554;28;20043;-90
2021/05/11 06:19:48;;;;;;;14.38;3.10;;;;;;;14.05;76.51;99544.72;5067627;28;20379;-91
2021/05/11 06:22:14;;;;;;;19.45;3.55;;;;;;;14.17;76.37;99545.34;5068180;28;20028;-90
2021/05/11 06:24:41;;;;;;;15.35;2.90;;;;;;;14.28;75.38;99553.06;5064765;28;20029;-91
2021/05/11 06:27:07;;;;;;;17.20;3.20;;;;;;;14.37;75.05;99556.59;5071059;28;20386;-91
2021/05/11 06:29:37;;;;;;;17.27;2.97;;;;;;;14.70;74.42;99564.88;5067618;28;20025;-91
2021/05/11 06:32:03;;;;;;;13.05;3.40;;;;;;;15.43;72.41;99562.78;5069463;28;20060;-90
2021/05/11 06:34:29;;;;;;;16.90;2.83;;;;;;;15.69;69.57;99561.94;5070352;28;20029;-90
2021/05/11 06:36:54;;;;;;;12.88;2.83;;;;;;;16.39;68.16;99561.72;5058878;28;20028;-89
2021/05/11 06:39:20;;;;;;;16.50;3.17;;;;;;;17.04;64.10;99555.66;5066609;28;20048;-90
2021/05/11 06:41:49;;;;;;;12.63;3.53;;;;;;;16.85;62.71;99556.81;5068134;28;20036;-90
2021/05/11 06:49:33;;;;;;;14.57;2.72;;;;;;;18.23;57.73;99559.31;5063182;28;20425;-95
2021/05/11 06:54:42;;;;;;;13.20;2.50;;;;;;;18.43;56.47;99550.91;5056561;28;20365;-95
2021/05/11 06:57:08;;;;;;;8.80;2.38;;;;;;;18.18;58.16;99556.34;5068929;28;20028;-94
2021/05/11 06:59:34;;;;;;;14.50;2.60;;;;;;;18.04;57.77;99568.53;5074713;28;20024;-95
2021/05/11 07:02:01;;;;;;;15.75;2.75;;;;;;;18.65;56.23;99561.72;5080656;28;20625;-95
2021/05/11 07:04:26;;;;;;;9.07;2.25;;;;;;;19.13;54.54;99563.16;5075412;28;20108;-95
2021/05/11 07:06:52;;;;;;;8.90;2.30;;;;;;;19.28;53.83;99571.19;5079179;28;20169;-96
2021/05/11 07:09:24;;;;;;;15.00;2.60;;;;;;;18.97;53.53;99565.97;5072230;28;20119;-96
2021/05/11 07:14:15;;;;;;;9.18;2.30;;;;;;;19.96;51.43;99568.47;5075280;28;20029;-96
2021/05/11 07:16:41;;;;;;;12.50;2.70;;;;;;;19.38;51.48;99570.94;5073477;28;20067;-95
2021/05/11 07:19:06;;;;;;;10.13;2.50;;;;;;;18.82;53.29;99568.59;5065588;28;20025;-95
2021/05/11 07:21:31;;;;;;;12.00;2.40;;;;;;;18.30;54.87;99578.03;5072027;28;20032;-96
2021/05/11 07:23:58;;;;;;;9.05;1.88;;;;;;;18.27;55.36;99580.22;5075827;28;20535;-95
2021/05/11 07:31:15;;;;;;;11.32;2.90;;;;;;;17.44;58.46;99580.47;5088765;28;20029;-94
2021/05/11 07:36:07;;;;;;;10.43;2.20;;;;;;;17.05;59.81;99580.38;5089076;28;20037;-95
2021/05/11 07:38:33;;;;;;;13.40;2.53;;;;;;;16.72;61.62;99587.44;5085930;28;20448;-96
2021/05/11 07:40:59;;;;;;;14.82;2.50;;;;;;;16.72;61.57;99577.66;5075985;28;20029;-96
2021/05/11 07:43:26;;;;;;;13.60;2.78;;;;;;;16.71;61.70;99580.50;5090243;28;20024;-93
2021/05/11 08:10:01;;;;;;;11.65;2.05;;;;;;;17.14;61.78;99576.72;5073617;28;20143;-93
2021/05/11 08:15:31;;;;;;;9.40;2.80;;;;;;;19.73;54.06;99572.09;5072500;28;20070;-95
2021/05/11 08:27:27;;;;;;;10.73;2.20;;;;;;;22.45;44.06;99557.69;5075876;28;20047;-93
2021/05/11 08:29:01;;;;;;;13.65;2.03;;;;;;;24.20;38.21;99555.44;5076058;28;20099;-96
2021/05/11 08:31:26;;;;;;;7.82;1.55;;;;;;;24.86;35.51;99559.63;5059424;28;20045;-94
2021/05/11 08:33:52;;;;;;;10.82;2.20;;;;;;;24.17;36.40;99549.69;5063391;28;20376;-94
2021/05/11 08:36:17;;;;;;;8.65;2.30;;;;;;;23.72;36.33;99553.97;5059469;28;20109;-96
2021/05/11 08:38:42;;;;;;;10.13;1.42;;;;;;;24.76;36.21;99551.19;5075369;28;20021;-96
2021/05/11 08:41:08;;;;;;;10.65;2.28;;;;;;;24.32;35.29;99552.91;5061506;28;20012;-96
2021/05/11 08:43:36;;;;;;;7.82;2.00;;;;;;;25.29;34.30;99542.72;5054774;28;20463;-95
2021/05/11 08:46:07;;;;;;;4.88;1.65;;;;;;;25.75;33.26;99542.44;5058441;28;20059;-96
2021/05/11 08:48:34;;;;;;;10.68;1.63;;;;;;;25.66;32.75;99548.13;5060082;28;20060;-95
2021/05/11 08:51:09;;;;;;;6.93;1.25;;;;;;;26.08;32.00;99542.06;5057228;28;20037;-96
2021/05/11 09:16:23;;;;;;;14.93;1.85;;;;;;;26.00;31.33;99543.22;5042479;28;20060;-93
2021/05/11 09:24:54;;;;;;;6.75;1.23;;;;;;;25.14;31.35;99531.50;5054541;28;20028;-93
2021/05/11 09:59:02;;;;;;;3.95;1.08;;;;;;;27.72;27.84;99510.22;5067586;28;20017;-92
2021/05/11 10:48:34;;;;;;;3.45;0.70;;;;;;;28.09;25.81;99511.50;5054348;28;20025;-96
2021/05/11 10:51:02;;;;;;;2.90;0.73;;;;;;;26.66;26.94;99509.19;5061584;28;20025;-96
2021/05/11 10:53:45;;;;;;;6.13;0.90;;;;;;;25.91;28.14;99515.00;5061039;28;20040;-96
2021/05/11 11:01:52;;;;;;;3.50;1.17;;;;;;;23.21;31.56;99525.22;5060203;28;20039;-92
2021/05/11 11:04:22;;;;;;;3.60;1.10;;;;;;;22.63;32.78;99533.88;5056802;28;20021;-94
2021/05/11 11:06:57;;;;;;;4.65;1.00;;;;;;;21.60;38.06;99531.22;5058584;28;20378;-94
2021/05/11 11:09:23;;;;;;;4.47;1.05;;;;;;;21.55;37.98;99547.03;5056885;28;20542;-95
2021/05/11 11:11:50;;;;;;;5.00;1.02;;;;;;;21.71;39.65;99545.88;5057565;28;20471;-95
2021/05/11 11:14:15;;;;;;;2.80;0.63;;;;;;;22.64;34.45;99540.03;5058122;28;20029;-95
2021/05/11 11:16:40;;;;;;;3.28;0.60;;;;;;;23.38;32.49;99535.50;5058244;28;20020;-95
2021/05/11 11:19:10;;;;;;;3.65;0.65;;;;;;;23.71;31.46;99530.03;5058294;28;20071;-96
2021/05/11 11:24:25;;;;;;;3.67;0.50;;;;;;;24.03;30.79;99535.53;5057353;28;20029;-94
2021/05/11 11:26:52;;;;;;;2.30;0.77;;;;;;;24.84;29.58;99526.81;5064446;28;20021;-96
2021/05/11 11:29:20;;;;;;;3.60;0.68;;;;;;;26.23;29.11;99523.66;5061777;28;20428;-96
2021/05/11 11:31:46;;;;;;;5.22;0.98;;;;;;;26.24;28.10;99527.97;5078530;28;20032;-96
2021/05/11 11:34:32;;;;;;;4.82;0.60;;;;;;;25.42;27.41;99517.59;5061976;28;20112;-96
2021/05/11 11:37:02;;;;;;;4.15;0.88;;;;;;;26.98;26.33;99516.13;5055505;28;20402;-96
2021/05/11 11:39:30;;;;;;;5.93;0.90;;;;;;;27.35;26.54;99516.75;5065035;28;20013;-96
2021/05/11 11:41:58;;;;;;;4.50;1.10;;;;;;;27.80;25.05;99520.63;5062839;28;20025;-95
2021/05/11 11:44:26;;;;;;;6.95;0.85;;;;;;;27.55;25.34;99510.97;5066727;28;20063;-95
2021/05/11 11:46:51;;;;;;;4.45;0.90;;;;;;;26.78;25.60;99511.91;5063933;28;20017;-96
2021/05/11 11:49:19;;;;;;;5.68;0.95;;;;;;;26.71;26.05;99501.22;5099655;22;20051;-96
2021/05/11 11:51:57;;;;;;;3.05;0.90;;;;;;;25.79;26.25;99514.06;5073744;28;20028;-93
2021/05/11 11:54:33;;;;;;;2.92;0.82;;;;;;;26.38;26.20;99507.09;5060265;28;20071;-95
2021/05/11 11:59:54;;;;;;;3.22;0.70;;;;;;;26.66;24.49;99516.44;5063056;28;20025;-96
2021/05/11 12:02:19;;;;;;;2.58;0.50;;;;;;;26.44;24.99;99513.41;5072458;28;20171;-96
2021/05/11 12:04:46;;;;;;;5.15;1.10;;;;;;;26.86;24.70;99506.16;5068993;28;20094;-96
2021/05/11 12:07:15;;;;;;;2.55;0.60;;;;;;;26.70;23.93;99520.31;5057401;28;20052;-95
2021/05/11 12:09:40;;;;;;;4.25;0.95;;;;;;;26.17;25.46;99518.38;5058319;28;20028;-96
2021/05/11 12:12:06;;;;;;;3.65;0.98;;;;;;;27.18;25.77;99500.44;5054272;28;20021;-95
2021/05/11 12:14:37;;;;;;;5.30;1.38;;;;;;;26.51;26.13;99514.97;5055812;28;20020;-95
2021/05/11 12:17:02;;;;;;;2.55;0.90;;;;;;;26.04;27.03;99493.28;5120856;22;20080;-96
2021/05/11 12:19:30;;;;;;;4.05;1.65;;;;;;;26.15;27.48;99485.50;5052840;28;20037;-96
2021/05/11 12:22:04;;;;;;;4.47;1.00;;;;;;;26.75;25.92;99485.41;5053818;28;20004;-96
2021/05/11 12:24:35;;;;;;;2.80;0.70;;;;;;;27.18;24.68;99495.03;5073664;28;20020;-96
2021/05/11 12:35:14;;;;;;;6.25;0.98;;;;;;;26.22;26.04;99508.56;5354803;23;20037;-95
2021/05/11 12:40:28;;;;;;;3.92;0.93;;;;;;;26.31;26.19;99474.09;5459584;23;20081;-96
2021/05/11 12:42:56;;;;;;;3.55;0.80;;;;;;;26.38;25.78;99496.31;5089646;23;20046;-95
2021/05/11 12:45:22;;;;;;;5.65;0.90;;;;;;;26.57;25.23;99497.06;5015150;28;20033;-96
2021/05/11 12:48:02;;;;;;;3.15;1.00;;;;;;;26.31;25.31;99479.47;5106071;23;20038;-96
2021/05/11 12:50:34;;;;;;;2.30;0.80;;;;;;;26.47;25.39;99476.09;5024657;28;20423;-96
2021/05/11 12:53:28;;;;;;;2.88;0.45;;;;;;;27.12;23.87;99495.97;5011405;28;20029;-96
2021/05/11 12:58:36;;;;;;;3.10;0.50;;;;;;;23.79;27.65;99505.72;5016292;28;20066;-95
2021/05/11 13:01:21;;;;;;;1.73;0.50;;;;;;;24.68;27.00;99500.47;5014975;28;20016;-95
2021/05/11 13:04:10;;;;;;;3.58;0.90;;;;;;;24.38;26.32;99503.75;5022701;28;20026;-94
2021/05/11 13:09:34;;;;;;;3.38;0.47;;;;;;;23.45;28.89;99498.81;5006820;28;20045;-96
2021/05/11 13:15:07;;;;;;;4.65;0.60;;;;;;;22.94;28.42;99479.69;5022869;28;20036;-96
2021/05/11 13:25:36;;;;;;;3.25;0.82;;;;;;;21.78;30.84;99493.28;5026326;28;20085;-95
2021/05/11 13:28:09;;;;;;;4.35;0.70;;;;;;;21.25;30.78;99517.00;5021443;28;20482;-96
2021/05/11 13:33:26;;;;;;;4.15;0.63;;;;;;;20.94;32.31;99499.56;5028431;28;20072;-96
2021/05/11 13:35:53;;;;;;;3.85;0.80;;;;;;;20.43;33.40;99494.38;5025776;28;20044;-96
2021/05/11 13:38:27;;;;;;;1.80;0.60;;;;;;;21.44;32.25;99483.47;5019030;28;20022;-96
2021/05/11 13:40:53;;;;;;;2.35;0.63;;;;;;;20.62;33.01;99490.25;5011113;28;20036;-96
2021/05/11 13:43:20;;;;;;;3.63;0.95;;;;;;;21.14;32.82;99513.03;5025233;28;20034;-96
2021/05/11 13:45:46;;;;;;;2.70;1.02;;;;;;;19.96;33.39;99497.38;5170649;23;20109;-96
2021/05/11 13:48:19;;;;;;;3.65;1.15;;;;;;;19.84;33.00;99490.03;5035536;28;20037;-96
2021/05/11 13:50:58;;;;;;;4.88;1.17;;;;;;;20.30;32.46;99455.06;5126340;23;21303;-96
2021/05/11 13:53:26;;;;;;;4.22;0.40;;;;;;;20.31;32.54;99488.72;5266361;23;20033;-96
2021/05/11 14:04:07;;;;;;;2.03;0.57;;;;;;;19.86;33.02;99464.03;5034904;28;20044;-96
2021/05/11 14:06:33;;;;;;;4.03;0.75;;;;;;;20.27;32.58;99447.47;5090539;23;20093;-96
2021/05/11 14:08:58;;;;;;;3.92;0.98;;;;;;;20.00;32.19;99447.19;5016814;28;20126;-96
2021/05/11 14:11:24;;;;;;;3.47;0.73;;;;;;;20.31;31.64;99441.56;5013380;28;20034;-96
2021/05/11 14:13:50;;;;;;;1.42;0.43;;;;;;;19.85;30.88;99460.56;5811817;23;20035;-96
2021/05/11 14:16:15;;;;;;;3.67;0.70;;;;;;;19.28;32.95;99448.75;5098970;23;20037;-95
2021/05/11 14:18:41;;;;;;;4.95;0.52;;;;;;;19.74;31.94;99445.06;5019738;28;20469;-96
2021/05/11 14:23:41;;;;;;;1.80;0.63;;;;;;;20.63;31.72;99446.56;5150814;23;20065;-96
2021/05/11 14:26:07;;;;;;;2.50;0.80;;;;;;;20.56;31.69;99447.31;5018131;28;20449;-96
2021/05/11 14:28:32;;;;;;;5.25;1.00;;;;;;;20.89;31.73;99453.94;5026200;28;20567;-96
2021/05/11 14:30:58;;;;;;;4.93;0.90;;;;;;;20.62;30.23;99455.56;5021543;28;20076;-96
2021/05/11 14:33:23;;;;;;;3.20;0.57;;;;;;;20.46;30.25;99470.81;5008758;28;20086;-96
2021/05/11 14:35:49;;;;;;;3.10;1.00;;;;;;;20.31;30.91;99476.22;5017022;28;20083;-96
2021/05/11 14:40:50;;;;;;;3.63;0.88;;;;;;;19.96;29.76;99440.59;5856614;23;20061;-96
2021/05/11 14:43:15;;;;;;;5.28;0.73;;;;;;;19.99;31.78;99441.03;5017469;28;20014;-96
2021/05/11 14:45:41;;;;;;;4.00;0.70;;;;;;;20.49;31.08;99443.75;5125154;23;20729;-96
2021/05/11 14:48:07;;;;;;;3.05;0.88;;;;;;;20.71;30.83;99449.09;4998507;28;20031;-96
2021/05/11 14:50:33;;;;;;;2.35;0.93;;;;;;;20.19;29.96;99433.25;5004475;28;20034;-96
2021/05/11 14:53:00;;;;;;;2.72;0.52;;;;;;;20.06;29.66;99430.44;4988726;28;20026;-96
2021/05/11 14:55:26;;;;;;;2.85;0.68;;;;;;;20.12;30.10;99460.84;4995370;28;20079;-96
2021/05/11 14:57:52;;;;;;;5.40;0.77;;;;;;;19.63;31.85;99449.00;4995511;28;20485;-96
2021/05/11 15:00:18;;;;;;;5.28;0.70;;;;;;;19.96;32.43;99452.09;4991157;28;20046;-96
2021/05/11 15:02:44;;;;;;;3.42;0.68;;;;;;;19.94;31.79;99447.94;5071738;23;20030;-96
2021/05/11 15:05:10;;;;;;;4.70;0.82;;;;;;;19.76;31.03;99456.34;5025363;28;20057;-96
2021/05/11 15:07:37;;;;;;;1.70;0.60;;;;;;;19.08;30.97;99431.72;5064471;23;20051;-96
2021/05/11 15:35:46;;;;;;;7.35;1.10;;;;;;;16.38;52.69;99464.69;4982737;28;20042;-93
2021/05/11 15:38:12;;;;;;;13.35;1.30;;;;;;;16.41;55.53;99463.50;4979286;28;20030;-91
2021/05/11 15:40:40;;;;;;;7.10;1.02;;;;;;;16.26;59.17;99463.34;4992904;28;20022;-92
2021/05/11 15:43:07;;;;;;;5.63;1.50;;;;;;;16.15;60.41;99450.41;4986311;28;20038;-93
2021/05/11 15:45:33;;;;;;;3.85;1.20;;;;;;;16.29;62.01;99428.59;4978928;28;20031;-94
2021/05/11 15:48:03;;;;;;;8.35;1.35;;;;;;;15.56;61.40;99447.75;4992439;28;20042;-92
2021/05/11 15:50:31;;;;;;;4.80;1.10;;;;;;;15.58;63.60;99454.56;4984851;28;20019;-95
2021/05/11 15:53:02;;;;;;;5.40;1.17;;;;;;;15.76;65.75;99458.97;4982950;28;20026;-92
2021/05/11 15:55:35;;;;;;;6.10;1.08;;;;;;;15.28;68.71;99442.69;4977827;28;20050;-92
2021/05/11 15:58:01;;;;;;;2.53;0.90;;;;;;;15.49;67.86;99446.75;4965327;28;20041;-91
2021/05/11 16:00:27;;;;;;;2.88;0.90;;;;;;;15.37;69.21;99443.56;4960748;28;20023;-91
2021/05/11 16:02:54;;;;;;;8.40;1.35;;;;;;;15.35;69.07;99435.78;4978631;28;20035;-91
2021/05/11 16:05:21;;;;;;;7.13;1.10;;;;;;;15.57;71.84;99439.66;4977375;28;20501;-93
2021/05/11 16:07:48;;;;;;;6.47;1.30;;;;;;;15.38;72.10;99432.84;4970212;28;20035;-92
2021/05/11 16:10:15;;;;;;;6.32;1.30;;;;;;;15.34;72.94;99422.72;4966459;28;20023;-92
2021/05/11 16:12:40;;;;;;;5.38;1.17;;;;;;;14.96;72.57;99425.66;4970116;28;20067;-92
2021/05/11 16:15:11;;;;;;;6.32;1.20;;;;;;;15.16;74.13;99414.88;4966403;28;20445;-91
2021/05/11 16:17:37;;;;;;;3.88;1.27;;;;;;;15.18;74.39;99413.72;4983563;28;20034;-91
2021/05/11 16:20:09;;;;;;;6.60;1.55;;;;;;;15.04;74.04;99398.44;4977430;28;20113;-90
2021/05/11 16:22:34;;;;;;;6.50;1.55;;;;;;;15.15;76.76;99410.56;4989763;28;20023;-90
2021/05/11 16:25:00;;;;;;;6.95;1.50;;;;;;;15.14;77.33;99411.53;4975672;28;20026;-92
2021/05/11 16:27:25;;;;;;;4.35;1.80;;;;;;;15.08;76.45;99402.44;4980595;28;20061;-90
2021/05/11 16:29:52;;;;;;;4.88;1.30;;;;;;;14.99;75.62;99390.19;4982602;28;20038;-92
2021/05/11 16:32:17;;;;;;;4.63;1.23;;;;;;;14.97;76.42;99385.03;4978090;28;20026;-93
2021/05/11 16:34:43;;;;;;;7.15;1.80;;;;;;;14.92;76.20;99386.50;4976769;28;20539;-91
2021/05/11 16:37:10;;;;;;;3.20;1.00;;;;;;;14.86;76.89;99382.66;4966563;28;20045;-92